Time;durP1;ratioP1;P1;durP2;ratioP2;P2;SDS_P1;SDS_P2;PMS_P1;PMS_P2;Temp;Humidity;BMP_temperature;BMP_pressure;BME280_temperature;BME280_humidity;BME280_pressure;Samples;Min_cycle;Max_cycle;Signal;HPM_P1;HPM_P2
2023/06/02 00:00:00;;;;;;;17.60;8.38;;;;;;;10.98;76.39;102056.53;5073162;28;20025;-47
2023/06/02 00:02:29;;;;;;;18.27;8.65;;;;;;;10.98;75.96;102062.88;5071522;28;20029;-48
2023/06/02 00:04:59;;;;;;;18.20;8.50;;;;;;;10.93;75.69;102058.19;5072783;28;20098;-48
2023/06/02 00:07:27;;;;;;;17.02;8.25;;;;;;;10.90;75.57;102067.06;5072700;28;20036;-47
2023/06/02 00:09:53;;;;;;;17.67;8.45;;;;;;;10.91;75.54;102054.84;5072680;28;20467;-50
2023/06/02 00:12:19;;;;;;;20.50;8.73;;;;;;;10.90;75.34;102058.75;5072857;28;20017;-51
2023/06/02 00:14:44;;;;;;;19.33;9.07;;;;;;;10.84;75.26;102061.81;5072686;28;20035;-52
2023/06/02 00:17:10;;;;;;;15.88;8.23;;;;;;;10.81;75.77;102054.91;5072600;28;20460;-52
2023/06/02 00:19:37;;;;;;;17.95;8.38;;;;;;;10.82;75.37;102055.72;5072154;28;20041;-49
2023/06/02 00:22:05;;;;;;;18.20;8.18;;;;;;;10.77;75.89;102051.81;5072613;28;20055;-49
2023/06/02 00:24:31;;;;;;;17.67;8.40;;;;;;;10.87;75.36;102051.00;5072195;28;20488;-48
2023/06/02 00:26:56;;;;;;;19.80;8.90;;;;;;;10.91;75.29;102054.03;5072535;28;20024;-48
2023/06/02 00:29:22;;;;;;;20.27;9.18;;;;;;;10.87;74.75;102053.78;5072279;28;20032;-51
2023/06/02 00:31:47;;;;;;;20.25;9.23;;;;;;;10.90;73.90;102055.16;5072332;28;20475;-48
2023/06/02 00:34:13;;;;;;;18.25;8.93;;;;;;;10.95;73.49;102062.63;5072262;28;20017;-49
2023/06/02 00:36:38;;;;;;;20.10;9.60;;;;;;;10.92;73.22;102061.25;5072318;28;20029;-49
2023/06/02 00:39:03;;;;;;;21.85;9.27;;;;;;;10.83;72.69;102057.38;5072110;28;20039;-47
2023/06/02 00:41:29;;;;;;;21.63;8.93;;;;;;;10.77;72.41;102051.00;5069693;28;20036;-51
2023/06/02 00:43:55;;;;;;;21.27;9.10;;;;;;;10.68;72.81;102056.25;5071166;28;20033;-47
2023/06/02 00:46:20;;;;;;;19.30;9.15;;;;;;;10.60;72.93;102048.50;5072074;28;20496;-46
2023/06/02 00:48:48;;;;;;;19.95;9.30;;;;;;;10.58;73.32;102048.00;5072146;28;20436;-47
2023/06/02 00:51:14;;;;;;;20.27;8.60;;;;;;;10.59;72.75;102050.47;5071983;28;20134;-49
2023/06/02 00:53:40;;;;;;;19.15;8.50;;;;;;;10.62;72.70;102051.84;5072067;28;20027;-51
2023/06/02 00:56:06;;;;;;;20.05;8.68;;;;;;;10.55;72.80;102043.00;5071943;28;20074;-48
2023/06/02 00:58:37;;;;;;;19.38;8.70;;;;;;;10.58;72.56;102051.56;5071700;28;20033;-48
2023/06/02 01:01:02;;;;;;;20.58;8.02;;;;;;;10.51;72.80;102051.03;5071640;28;20039;-49
2023/06/02 01:03:28;;;;;;;23.92;8.18;;;;;;;10.37;73.25;102049.84;5071717;28;20380;-47
2023/06/02 01:05:56;;;;;;;22.20;9.07;;;;;;;10.38;73.65;102052.41;5071875;28;20106;-47
2023/06/02 01:08:22;;;;;;;26.52;8.95;;;;;;;10.46;73.46;102051.00;5071932;28;20380;-47
2023/06/02 01:10:50;;;;;;;21.55;9.18;;;;;;;10.35;73.75;102046.53;5071742;28;20031;-50
2023/06/02 01:13:15;;;;;;;19.40;8.18;;;;;;;10.40;73.93;102055.69;5071791;28;20020;-51
2023/06/02 01:15:41;;;;;;;21.65;8.45;;;;;;;10.48;73.80;102056.28;5071958;28;20485;-48
2023/06/02 01:18:10;;;;;;;21.85;8.20;;;;;;;10.40;74.17;102049.34;5071435;28;20442;-47
2023/06/02 01:20:51;;;;;;;18.58;8.00;;;;;;;10.43;74.21;102055.16;5071917;28;20078;-50
2023/06/02 01:23:31;;;;;;;18.45;8.07;;;;;;;10.52;74.00;102054.59;5071862;28;20028;-47
2023/06/02 01:25:57;;;;;;;18.23;8.07;;;;;;;10.63;73.43;102052.69;5071764;28;20020;-47
2023/06/02 01:28:23;;;;;;;22.48;8.80;;;;;;;10.56;73.19;102047.44;5071655;28;20499;-48
2023/06/02 01:30:52;;;;;;;20.23;8.38;;;;;;;10.55;73.73;102054.88;5071599;28;20021;-47
2023/06/02 01:33:35;;;;;;;19.67;8.32;;;;;;;10.44;73.94;102045.75;5071516;28;20506;-48
2023/06/02 01:36:00;;;;;;;20.70;8.73;;;;;;;10.47;74.25;102040.78;5073200;28;20029;-47
2023/06/02 01:38:28;;;;;;;19.40;8.57;;;;;;;10.48;73.67;102042.44;5075574;28;20037;-48
2023/06/02 01:40:58;;;;;;;18.98;8.32;;;;;;;10.49;73.84;102042.16;5075486;28;20033;-48
2023/06/02 01:43:24;;;;;;;21.10;8.50;;;;;;;10.47;74.55;102038.03;5072606;28;20108;-47
2023/06/02 01:45:51;;;;;;;18.75;8.60;;;;;;;10.46;74.14;102037.16;5075639;28;20028;-49
2023/06/02 01:48:17;;;;;;;23.20;8.93;;;;;;;10.56;74.28;102036.34;5075480;28;20024;-48
2023/06/02 01:50:43;;;;;;;18.75;8.52;;;;;;;10.50;74.39;102042.97;5075551;28;20032;-49
2023/06/02 01:53:09;;;;;;;20.95;8.68;;;;;;;10.52;74.57;102032.47;5075533;28;20410;-49
2023/06/02 01:55:34;;;;;;;21.15;8.50;;;;;;;10.56;74.35;102028.88;5081817;28;20035;-49
2023/06/02 01:58:00;;;;;;;19.80;8.82;;;;;;;10.57;74.09;102032.50;5095470;28;20035;-46
2023/06/02 02:00:26;;;;;;;20.40;8.40;;;;;;;10.55;74.36;102034.69;5095572;28;20024;-47
2023/06/02 02:02:52;;;;;;;20.85;9.10;;;;;;;10.50;74.81;102041.06;5095548;28;20031;-50
2023/06/02 02:05:18;;;;;;;22.30;8.70;;;;;;;10.47;75.29;102033.31;5095471;28;20390;-47
2023/06/02 02:07:45;;;;;;;17.77;8.18;;;;;;;10.41;75.36;102032.47;5095299;28;20039;-49
2023/06/02 02:10:12;;;;;;;22.65;8.68;;;;;;;10.40;75.56;102032.75;5095045;28;20024;-47
2023/06/02 02:12:38;;;;;;;19.15;8.82;;;;;;;10.39;75.81;102034.66;5095177;28;20028;-47
2023/06/02 02:15:04;;;;;;;19.48;8.65;;;;;;;10.49;75.53;102042.16;5095001;28;20144;-50
2023/06/02 02:17:30;;;;;;;20.92;8.80;;;;;;;10.44;75.82;102040.22;5094791;28;20451;-51
2023/06/02 02:19:56;;;;;;;19.95;9.40;;;;;;;10.47;75.60;102044.38;5093999;28;20028;-49
2023/06/02 02:22:23;;;;;;;21.00;8.57;;;;;;;10.47;75.87;102041.59;5093820;28;20370;-51
2023/06/02 02:24:48;;;;;;;19.48;8.50;;;;;;;10.54;76.07;102038.56;5093584;28;20418;-50
2023/06/02 02:27:14;;;;;;;22.00;8.82;;;;;;;10.58;76.36;102045.22;5093671;28;20073;-50
2023/06/02 02:29:39;;;;;;;21.27;8.73;;;;;;;10.59;76.16;102035.78;5093646;28;20081;-50
2023/06/02 02:32:05;;;;;;;25.10;9.65;;;;;;;10.59;76.20;102030.25;5093739;28;20020;-50
2023/06/02 02:34:32;;;;;;;20.95;8.80;;;;;;;10.59;76.17;102033.03;5093695;28;20360;-47
2023/06/02 02:37:01;;;;;;;21.75;8.60;;;;;;;10.63;76.45;102033.31;5093634;28;20109;-47
2023/06/02 02:39:29;;;;;;;21.33;9.73;;;;;;;10.65;76.27;102039.38;5093565;28;20020;-48
2023/06/02 02:41:55;;;;;;;19.15;9.13;;;;;;;10.66;76.24;102039.13;5092271;28;20113;-49
2023/06/02 02:44:21;;;;;;;20.27;9.13;;;;;;;10.69;75.98;102044.09;5090328;28;20063;-47
2023/06/02 02:46:46;;;;;;;22.42;9.32;;;;;;;10.66;75.81;102041.03;5093218;28;20028;-47
2023/06/02 02:49:11;;;;;;;23.05;9.57;;;;;;;10.58;76.32;102034.97;5093612;28;20792;-48
2023/06/02 02:51:37;;;;;;;21.55;9.43;;;;;;;10.52;76.18;102036.09;5093469;28;20121;-48
2023/06/02 02:54:03;;;;;;;20.98;9.30;;;;;;;10.43;76.92;102037.75;5093301;28;20032;-49
2023/06/02 02:56:28;;;;;;;24.92;9.55;;;;;;;10.41;77.07;102029.69;5092267;28;20115;-50
2023/06/02 02:58:56;;;;;;;25.23;10.30;;;;;;;10.39;76.88;102036.63;5093025;28;20032;-49
2023/06/02 03:01:22;;;;;;;18.95;9.20;;;;;;;10.42;77.00;102039.66;5093197;28;20476;-49
2023/06/02 03:03:49;;;;;;;22.05;10.13;;;;;;;10.38;77.06;102046.03;5093163;28;20020;-48
2023/06/02 03:06:18;;;;;;;19.08;9.00;;;;;;;10.33;76.85;102037.69;5093303;28;20031;-49
2023/06/02 03:08:44;;;;;;;20.80;9.73;;;;;;;10.25;77.10;102037.13;5093528;28;20024;-49
2023/06/02 03:11:11;;;;;;;23.02;9.27;;;;;;;10.25;76.49;102041.84;5093074;28;20032;-48
2023/06/02 03:13:36;;;;;;;21.95;9.35;;;;;;;10.21;76.75;102041.56;5093225;28;20117;-49
2023/06/02 03:16:01;;;;;;;22.90;9.65;;;;;;;10.21;76.69;102047.09;5092996;28;20468;-46
2023/06/02 03:18:27;;;;;;;20.13;8.88;;;;;;;10.19;76.25;102049.28;5056555;28;1043631;-49
2023/06/02 03:20:54;;;;;;;25.27;10.90;;;;;;;10.22;76.49;102050.66;5093972;28;20039;-50
2023/06/02 03:23:19;;;;;;;20.67;9.60;;;;;;;10.23;75.45;102064.25;5092683;28;20020;-50
2023/06/02 03:25:46;;;;;;;22.60;9.98;;;;;;;10.19;75.66;102051.25;5093838;28;20028;-48
2023/06/02 03:28:12;;;;;;;23.05;9.63;;;;;;;10.19;76.49;102054.00;5093849;28;20034;-50
2023/06/02 03:30:37;;;;;;;21.05;9.23;;;;;;;10.13;75.94;102059.50;5093483;28;20020;-52
2023/06/02 03:33:02;;;;;;;21.50;9.60;;;;;;;10.08;75.38;102062.28;5093730;28;20043;-48
2023/06/02 03:35:28;;;;;;;21.15;9.25;;;;;;;9.97;76.22;102058.63;5093284;28;20118;-51
2023/06/02 03:37:53;;;;;;;21.45;9.60;;;;;;;10.03;76.16;102053.13;5092774;28;20032;-48
2023/06/02 03:40:18;;;;;;;20.88;9.73;;;;;;;9.96;76.48;102056.16;5091666;28;20028;-49
2023/06/02 03:42:44;;;;;;;19.02;8.98;;;;;;;9.98;76.11;102054.78;5091124;28;20132;-51
2023/06/02 03:45:09;;;;;;;22.10;9.95;;;;;;;9.99;76.56;102050.91;5093408;28;20491;-51
2023/06/02 03:47:35;;;;;;;26.52;11.00;;;;;;;10.06;76.18;102056.19;5093275;28;20558;-52
2023/06/02 03:50:00;;;;;;;20.08;9.55;;;;;;;10.03;76.55;102064.19;5093106;28;20040;-48
2023/06/02 03:52:26;;;;;;;22.52;10.38;;;;;;;10.06;75.69;102064.47;5093136;28;20497;-50
2023/06/02 03:54:52;;;;;;;19.38;10.15;;;;;;;10.06;75.53;102058.94;5093226;28;20138;-47
2023/06/02 03:57:18;;;;;;;23.00;11.00;;;;;;;9.98;75.74;102063.06;5093062;28;20042;-49
2023/06/02 03:59:43;;;;;;;21.98;10.18;;;;;;;9.95;75.82;102060.88;5092104;28;20360;-46
2023/06/02 04:02:08;;;;;;;21.38;9.68;;;;;;;9.89;75.84;102061.94;5092847;28;20495;-47
2023/06/02 04:04:36;;;;;;;19.10;9.52;;;;;;;9.87;75.97;102066.06;5092886;28;20111;-46
2023/06/02 04:07:02;;;;;;;21.52;10.68;;;;;;;9.89;75.45;102061.94;5092835;28;20058;-47
2023/06/02 04:09:27;;;;;;;23.75;9.70;;;;;;;9.90;76.07;102076.59;5093061;28;20028;-50
2023/06/02 04:11:52;;;;;;;21.33;9.43;;;;;;;9.89;75.66;102069.41;5092775;28;20046;-51
2023/06/02 04:14:18;;;;;;;20.33;9.73;;;;;;;9.89;75.45;102072.16;5092939;28;20028;-51
2023/06/02 04:16:43;;;;;;;19.75;9.57;;;;;;;9.91;75.79;102078.25;5092912;28;20024;-49
2023/06/02 04:19:08;;;;;;;20.40;9.25;;;;;;;9.89;75.49;102078.50;5092571;28;20043;-48
2023/06/02 04:21:33;;;;;;;20.15;9.45;;;;;;;9.83;75.46;102085.13;5092887;28;20056;-46
2023/06/02 04:23:59;;;;;;;18.23;8.88;;;;;;;9.77;75.26;102084.28;5092742;28;20052;-46
2023/06/02 04:26:24;;;;;;;19.70;9.32;;;;;;;9.77;75.26;102087.03;5092829;28;20028;-46
2023/06/02 04:28:50;;;;;;;19.58;8.93;;;;;;;9.79;75.32;102078.47;5091217;28;20425;-48
2023/06/02 04:31:26;;;;;;;19.65;9.10;;;;;;;9.82;75.39;102070.47;5092611;28;20024;-51
2023/06/02 04:33:52;;;;;;;20.00;9.68;;;;;;;9.83;75.07;102072.13;5092692;28;20039;-47
2023/06/02 04:36:17;;;;;;;19.98;9.30;;;;;;;9.87;75.09;102069.66;5092583;28;20027;-46
2023/06/02 04:38:44;;;;;;;18.77;9.00;;;;;;;9.88;75.19;102070.50;5092558;28;20077;-48
2023/06/02 04:41:09;;;;;;;18.00;8.85;;;;;;;9.90;75.44;102071.88;5089027;28;20043;-49
2023/06/02 04:43:34;;;;;;;20.65;8.70;;;;;;;9.96;75.10;102059.75;5092491;28;20067;-50
2023/06/02 04:46:01;;;;;;;19.58;8.70;;;;;;;9.98;74.71;102063.06;5092454;28;20073;-52
2023/06/02 04:48:26;;;;;;;20.15;8.90;;;;;;;9.94;74.11;102072.16;5092481;28;20073;-51
2023/06/02 04:50:51;;;;;;;19.42;8.88;;;;;;;9.96;74.30;102072.75;5092303;28;20406;-47
2023/06/02 04:53:17;;;;;;;20.10;8.32;;;;;;;9.91;73.77;102073.56;5092211;28;20107;-50
2023/06/02 04:55:45;;;;;;;21.25;8.65;;;;;;;9.82;73.76;102075.19;5092204;28;20544;-50
2023/06/02 04:58:10;;;;;;;19.60;9.13;;;;;;;9.81;74.25;102074.38;5092196;28;20024;-50
2023/06/02 05:00:36;;;;;;;20.67;8.90;;;;;;;9.89;74.05;102075.75;5092177;28;20027;-48
2023/06/02 05:03:01;;;;;;;19.92;8.77;;;;;;;9.97;73.85;102075.22;5089242;28;20565;-48
2023/06/02 05:05:27;;;;;;;19.52;8.45;;;;;;;9.98;73.64;102085.19;5082782;28;20061;-49
2023/06/02 05:07:52;;;;;;;20.80;8.80;;;;;;;10.01;73.89;102081.06;5081045;28;20028;-51
2023/06/02 05:10:18;;;;;;;19.38;8.68;;;;;;;10.10;74.38;102081.34;5081402;28;20032;-47
2023/06/02 05:12:43;;;;;;;20.38;8.75;;;;;;;10.03;73.35;102087.13;5082101;28;20054;-49
2023/06/02 05:15:09;;;;;;;20.83;8.68;;;;;;;10.02;73.80;102091.00;5083131;28;20032;-49
2023/06/02 05:17:34;;;;;;;18.75;8.50;;;;;;;10.00;73.92;102096.00;5081556;28;20031;-48
2023/06/02 05:20:00;;;;;;;18.08;8.13;;;;;;;10.00;73.84;102093.22;5079819;28;20031;-50
2023/06/02 05:22:27;;;;;;;21.35;8.60;;;;;;;10.01;73.15;102091.28;5083174;28;20400;-47
2023/06/02 05:24:52;;;;;;;21.02;8.70;;;;;;;10.05;73.77;102089.63;5081796;28;20162;-50
2023/06/02 05:27:17;;;;;;;21.13;8.90;;;;;;;10.12;73.12;102092.97;5080455;28;20111;-48
2023/06/02 05:29:43;;;;;;;20.27;8.43;;;;;;;10.00;73.12;102101.50;5080828;28;20028;-50
2023/06/02 05:32:09;;;;;;;19.42;8.15;;;;;;;9.92;73.36;102091.81;5080935;28;20017;-50
2023/06/02 05:34:34;;;;;;;22.60;8.23;;;;;;;9.95;73.64;102096.81;5081224;28;20103;-48
2023/06/02 05:37:00;;;;;;;18.33;8.23;;;;;;;9.98;73.93;102098.19;5078996;28;20124;-47
2023/06/02 05:39:25;;;;;;;21.15;8.50;;;;;;;10.04;74.00;102099.84;5082100;28;20021;-50
2023/06/02 05:41:51;;;;;;;19.77;8.40;;;;;;;10.04;73.54;102099.84;5077017;28;20048;-51
2023/06/02 05:44:16;;;;;;;20.13;8.20;;;;;;;10.13;73.80;102089.09;5085221;28;20028;-47
2023/06/02 05:46:41;;;;;;;19.30;7.88;;;;;;;10.22;73.30;102094.91;5091687;28;20016;-48
2023/06/02 05:49:07;;;;;;;16.70;7.40;;;;;;;10.19;73.39;102089.94;5091793;28;20126;-50
2023/06/02 05:51:32;;;;;;;19.65;8.63;;;;;;;10.22;73.00;102095.75;5091708;28;20067;-49
2023/06/02 05:53:57;;;;;;;21.60;9.10;;;;;;;10.17;72.53;102094.91;5091821;28;20514;-51
2023/06/02 05:56:23;;;;;;;19.20;8.15;;;;;;;10.08;72.98;102100.13;5091506;28;20063;-50
2023/06/02 05:58:48;;;;;;;19.00;8.02;;;;;;;10.06;72.91;102100.41;5091388;28;20027;-51
2023/06/02 06:01:14;;;;;;;20.92;8.40;;;;;;;10.04;73.23;102101.81;5091660;28;20054;-47
2023/06/02 06:03:39;;;;;;;21.27;9.15;;;;;;;10.09;72.75;102104.56;5091450;28;20024;-50
2023/06/02 06:06:05;;;;;;;22.27;8.93;;;;;;;10.06;73.14;102103.19;5091599;28;20032;-51
2023/06/02 06:08:30;;;;;;;20.75;8.82;;;;;;;10.07;72.38;102106.75;5091628;28;20032;-51
2023/06/02 06:10:55;;;;;;;19.75;8.77;;;;;;;10.20;73.09;102100.72;5091461;28;20363;-48
2023/06/02 06:13:20;;;;;;;22.40;8.30;;;;;;;10.17;72.32;102092.97;5091534;28;20031;-48
2023/06/02 06:15:47;;;;;;;19.88;8.10;;;;;;;10.18;72.43;102104.88;5091390;28;20020;-50
2023/06/02 06:18:13;;;;;;;19.15;8.23;;;;;;;10.32;72.42;102092.19;5091585;28;20131;-46
2023/06/02 06:20:41;;;;;;;23.20;8.50;;;;;;;10.42;71.19;102086.69;5091434;28;20218;-50
2023/06/02 06:23:06;;;;;;;18.80;8.38;;;;;;;10.51;71.77;102097.22;5094330;28;20057;-48
2023/06/02 06:25:31;;;;;;;18.85;8.05;;;;;;;10.53;71.01;102097.78;5095142;28;20387;-49
2023/06/02 06:27:57;;;;;;;20.80;8.50;;;;;;;10.47;70.85;102096.94;5095111;28;20470;-49
2023/06/02 06:30:22;;;;;;;20.65;8.77;;;;;;;10.48;71.65;102103.31;5094967;28;20032;-47
2023/06/02 06:32:47;;;;;;;21.20;8.57;;;;;;;10.42;71.45;102108.81;5094756;28;20085;-47
2023/06/02 06:35:13;;;;;;;20.98;8.30;;;;;;;10.45;70.97;102101.91;5091542;28;20028;-52
2023/06/02 06:37:38;;;;;;;25.50;8.70;;;;;;;10.36;70.99;102104.38;5094364;28;20375;-51
2023/06/02 06:40:03;;;;;;;18.00;8.73;;;;;;;10.34;71.71;102109.34;5094709;28;20024;-48
2023/06/02 06:42:29;;;;;;;24.50;8.48;;;;;;;10.44;71.25;102109.38;5094810;28;20089;-50
2023/06/02 06:44:55;;;;;;;18.35;7.88;;;;;;;10.53;71.20;102108.84;5094768;28;20028;-50
2023/06/02 06:47:20;;;;;;;20.77;8.38;;;;;;;10.56;70.55;102114.66;5094623;28;20036;-49
2023/06/02 06:49:45;;;;;;;23.58;8.73;;;;;;;10.59;70.94;102111.34;5094591;28;20063;-50
2023/06/02 06:52:10;;;;;;;19.48;8.48;;;;;;;10.70;70.18;102103.88;5094599;28;20039;-49
2023/06/02 06:54:36;;;;;;;22.13;8.77;;;;;;;10.84;69.25;102111.63;5094618;28;20059;-48
2023/06/02 06:57:01;;;;;;;21.80;8.10;;;;;;;10.98;68.92;102112.72;5094366;28;20434;-51
2023/06/02 06:59:27;;;;;;;20.83;8.38;;;;;;;11.05;68.70;102102.19;5094227;28;20027;-49
2023/06/02 07:01:52;;;;;;;20.77;8.55;;;;;;;11.24;68.05;102101.63;5094385;28;20043;-47
2023/06/02 07:04:17;;;;;;;18.67;8.05;;;;;;;11.42;66.84;102099.38;5094334;28;20168;-51
2023/06/02 07:06:43;;;;;;;22.42;8.20;;;;;;;11.32;66.74;102103.84;5093967;28;20036;-48
2023/06/02 07:09:10;;;;;;;19.67;8.32;;;;;;;11.54;67.64;102094.34;5094112;28;20031;-49
2023/06/02 07:11:35;;;;;;;18.63;7.90;;;;;;;11.66;66.09;102105.94;5093988;28;20131;-51
2023/06/02 07:14:01;;;;;;;19.88;7.95;;;;;;;11.72;65.97;102098.44;5093877;28;20027;-51
2023/06/02 07:16:26;;;;;;;20.38;7.75;;;;;;;11.75;65.35;102100.66;5093951;28;20024;-50
2023/06/02 07:18:51;;;;;;;19.55;7.53;;;;;;;11.76;65.86;102104.25;5093565;28;20044;-50
2023/06/02 07:21:16;;;;;;;20.02;7.70;;;;;;;11.71;65.64;102096.78;5092339;28;20016;-47
2023/06/02 07:23:42;;;;;;;21.23;7.72;;;;;;;11.64;64.97;102107.34;5089367;28;20499;-48
2023/06/02 07:26:07;;;;;;;19.90;7.60;;;;;;;11.75;65.28;102099.81;5093953;28;20020;-48
2023/06/02 07:28:32;;;;;;;21.88;7.93;;;;;;;11.90;64.88;102110.84;5093799;28;20130;-51
2023/06/02 07:30:58;;;;;;;20.08;7.50;;;;;;;12.15;64.85;102114.63;5087494;28;20028;-50
2023/06/02 07:33:23;;;;;;;19.63;7.78;;;;;;;12.35;64.19;102115.63;5089830;28;20020;-48
2023/06/02 07:35:49;;;;;;;21.40;8.07;;;;;;;12.22;63.51;102117.91;5092024;28;20056;-50
2023/06/02 07:38:14;;;;;;;24.17;8.07;;;;;;;12.21;63.54;102123.75;5091802;28;20345;-49
2023/06/02 07:40:39;;;;;;;19.90;7.50;;;;;;;12.23;63.49;102113.22;5091882;28;20067;-48
2023/06/02 07:43:05;;;;;;;19.48;7.70;;;;;;;12.21;62.43;102110.72;5091989;28;20436;-49
2023/06/02 07:45:30;;;;;;;21.35;8.02;;;;;;;12.33;62.64;102115.91;5090506;28;20043;-50
2023/06/02 07:47:56;;;;;;;19.85;8.70;;;;;;;12.44;62.19;102106.41;5091897;28;20533;-53
2023/06/02 07:50:21;;;;;;;21.30;8.25;;;;;;;12.45;62.30;102119.16;5091892;28;20040;-51
2023/06/02 07:52:47;;;;;;;19.38;8.00;;;;;;;12.56;62.20;102114.38;5091652;28;20017;-51
2023/06/02 07:55:12;;;;;;;21.05;8.10;;;;;;;12.45;61.84;102110.84;5091892;28;20046;-50
2023/06/02 07:57:38;;;;;;;19.40;8.13;;;;;;;12.53;62.19;102108.56;5091967;28;20185;-48
2023/06/02 08:00:15;;;;;;;21.15;8.45;;;;;;;12.69;61.61;102106.50;5091717;28;20039;-50
2023/06/02 08:02:46;;;;;;;18.27;7.50;;;;;;;12.53;60.76;102116.88;5092192;28;20092;-50
2023/06/02 08:05:12;;;;;;;17.70;8.20;;;;;;;12.54;61.81;102108.28;5092122;28;20027;-51
2023/06/02 08:07:38;;;;;;;23.02;7.57;;;;;;;12.66;61.29;102104.31;5091398;28;20032;-51
2023/06/02 08:10:04;;;;;;;18.95;7.95;;;;;;;12.90;61.09;102118.25;5092055;28;20035;-51
2023/06/02 08:12:29;;;;;;;22.75;7.80;;;;;;;13.20;59.88;102105.22;5092204;28;20122;-49
2023/06/02 08:14:54;;;;;;;22.25;8.07;;;;;;;13.46;59.09;102105.00;5092173;28;20026;-51
2023/06/02 08:17:20;;;;;;;18.15;7.30;;;;;;;13.43;59.41;102106.38;5092490;28;20032;-50
2023/06/02 08:19:45;;;;;;;18.23;7.95;;;;;;;13.76;58.84;102112.13;5091837;28;20403;-48
2023/06/02 08:22:11;;;;;;;19.02;8.00;;;;;;;13.77;57.51;102104.59;5091792;28;20024;-50
2023/06/02 08:24:36;;;;;;;16.98;7.60;;;;;;;13.73;58.48;102109.94;5091542;28;20036;-50
2023/06/02 08:27:03;;;;;;;21.60;7.78;;;;;;;13.56;57.68;102111.25;5087762;28;20764;-47
2023/06/02 08:29:30;;;;;;;21.33;7.68;;;;;;;13.59;57.98;102104.28;5091743;28;20027;-50
2023/06/02 08:31:55;;;;;;;21.25;8.80;;;;;;;13.71;57.94;102112.19;5090642;28;20148;-50
2023/06/02 08:34:21;;;;;;;20.42;7.78;;;;;;;13.66;57.46;102113.06;5091916;28;20383;-49
2023/06/02 08:36:56;;;;;;;20.42;7.63;;;;;;;13.63;58.12;102115.63;5090776;28;20187;-50
2023/06/02 08:39:21;;;;;;;22.10;8.07;;;;;;;13.62;56.90;102112.03;5081964;28;20066;-50
2023/06/02 08:41:48;;;;;;;19.05;7.68;;;;;;;13.75;57.80;102113.25;5082412;28;20020;-47
2023/06/02 08:44:14;;;;;;;18.95;8.48;;;;;;;13.81;57.75;102109.28;5079261;28;20020;-49
2023/06/02 08:46:40;;;;;;;20.25;7.78;;;;;;;13.89;56.99;102105.84;5081643;28;20036;-51
2023/06/02 08:49:06;;;;;;;18.95;7.60;;;;;;;13.99;56.62;102107.66;5071669;28;20039;-47
2023/06/02 08:51:37;;;;;;;20.52;7.80;;;;;;;13.84;57.02;102114.25;5068891;28;20036;-51
2023/06/02 08:54:05;;;;;;;22.52;8.27;;;;;;;13.50;57.90;102104.09;5071311;28;20036;-54
2023/06/02 08:56:30;;;;;;;18.95;7.68;;;;;;;13.55;58.40;102106.81;5070756;28;20020;-50
2023/06/02 08:58:55;;;;;;;19.63;7.95;;;;;;;13.65;58.02;102105.03;5069062;28;20468;-50
2023/06/02 09:01:21;;;;;;;18.45;7.53;;;;;;;13.55;57.24;102106.00;5071196;28;20025;-48
2023/06/02 09:03:49;;;;;;;18.75;7.60;;;;;;;13.54;57.54;102105.16;5071349;28;20039;-46
2023/06/02 09:06:18;;;;;;;24.50;8.13;;;;;;;13.68;58.19;102099.72;5073887;28;20039;-48
2023/06/02 09:08:56;;;;;;;23.83;7.82;;;;;;;13.81;58.66;102098.16;5089241;28;20020;-48
2023/06/02 09:11:22;;;;;;;21.15;8.20;;;;;;;13.84;57.42;102105.91;5088273;28;20028;-49
2023/06/02 09:13:48;;;;;;;21.27;8.43;;;;;;;14.01;57.77;102102.66;5087361;28;20081;-50
2023/06/02 09:16:13;;;;;;;19.45;8.00;;;;;;;14.11;57.20;102107.22;5088748;28;20038;-52
2023/06/02 09:18:38;;;;;;;18.60;7.93;;;;;;;14.18;57.29;102104.06;5088817;28;20071;-50
2023/06/02 09:21:04;;;;;;;18.35;7.72;;;;;;;14.21;56.51;102106.28;5089003;28;20105;-52
2023/06/02 09:23:49;;;;;;;20.65;8.05;;;;;;;14.20;57.43;102099.84;5089907;28;20020;-47
2023/06/02 09:26:19;;;;;;;22.77;8.50;;;;;;;14.17;57.80;102106.00;5090423;28;20036;-49
2023/06/02 09:28:44;;;;;;;21.88;8.40;;;;;;;14.48;57.30;102099.19;5091098;28;20131;-51
2023/06/02 09:31:11;;;;;;;19.25;7.57;;;;;;;14.39;57.34;102096.25;5091060;28;20016;-47
2023/06/02 09:33:37;;;;;;;20.65;7.85;;;;;;;14.50;57.49;102089.41;5089318;28;20067;-51
2023/06/02 09:36:04;;;;;;;19.75;8.02;;;;;;;14.54;57.52;102086.84;5090518;28;20129;-48
2023/06/02 09:38:41;;;;;;;19.42;7.40;;;;;;;14.76;58.05;102085.41;5090724;28;20111;-50
2023/06/02 09:41:17;;;;;;;18.33;7.95;;;;;;;14.66;57.62;102083.56;5090736;28;20129;-50
2023/06/02 09:43:42;;;;;;;18.98;8.40;;;;;;;14.73;56.89;102086.00;5090766;28;20020;-47
2023/06/02 09:46:08;;;;;;;19.73;8.48;;;;;;;14.85;57.06;102088.31;5090524;28;20448;-49
2023/06/02 09:48:34;;;;;;;18.45;7.90;;;;;;;14.88;56.55;102091.31;5090712;28;20077;-51
2023/06/02 09:51:00;;;;;;;20.33;8.85;;;;;;;15.00;57.28;102090.84;5090812;28;20028;-48
2023/06/02 09:53:27;;;;;;;17.48;7.35;;;;;;;15.27;55.97;102080.88;5090642;28;20039;-50
2023/06/02 09:55:52;;;;;;;18.30;8.15;;;;;;;15.60;55.65;102086.34;5090844;28;20069;-49
2023/06/02 09:58:18;;;;;;;21.10;8.32;;;;;;;15.88;55.45;102083.56;5092752;28;20077;-51
2023/06/02 10:00:43;;;;;;;20.70;8.43;;;;;;;15.82;54.50;102080.03;5094709;28;20039;-52
2023/06/02 10:03:09;;;;;;;19.65;8.05;;;;;;;15.77;55.04;102079.31;5094472;28;20035;-49
2023/06/02 10:05:37;;;;;;;18.90;8.02;;;;;;;15.59;55.13;102084.69;5094550;28;20077;-51
2023/06/02 10:08:30;;;;;;;17.85;8.05;;;;;;;15.63;56.53;102087.72;5094288;28;20115;-50
2023/06/02 10:11:22;;;;;;;20.48;8.18;;;;;;;15.87;55.52;102082.75;5092673;28;20032;-50
2023/06/02 10:14:11;;;;;;;18.25;8.25;;;;;;;15.85;55.95;102087.00;5094077;28;20032;-48
2023/06/02 10:17:02;;;;;;;19.75;8.07;;;;;;;15.84;55.85;102083.34;5094173;28;20035;-49
2023/06/02 10:19:45;;;;;;;20.90;8.73;;;;;;;15.95;55.76;102078.41;5093989;28;20600;-50
2023/06/02 10:22:49;;;;;;;18.75;8.18;;;;;;;15.92;56.21;102078.19;5094169;28;20024;-48
2023/06/02 10:25:59;;;;;;;19.83;8.73;;;;;;;16.16;55.94;102073.19;5091819;28;20087;-51
2023/06/02 10:28:28;;;;;;;17.63;8.48;;;;;;;16.44;54.92;102086.19;5074050;28;20059;-48
2023/06/02 10:31:11;;;;;;;21.48;8.98;;;;;;;16.61;54.81;102077.13;5072134;28;20349;-49
2023/06/02 10:33:45;;;;;;;19.00;9.00;;;;;;;16.76;54.63;102076.78;5072457;28;20025;-49
2023/06/02 10:36:13;;;;;;;;;;;;;;;16.90;54.24;102075.84;5074118;28;20107;-50
2023/06/02 10:38:38;;;;;;;23.30;9.38;;;;;;;16.84;54.44;102081.59;5073525;28;20306;-51
2023/06/02 10:41:04;;;;;;;24.55;9.75;;;;;;;16.83;53.67;102090.28;5073781;28;20040;-47
2023/06/02 10:43:33;;;;;;;21.80;9.50;;;;;;;16.49;54.04;102075.72;5080267;28;20024;-48
2023/06/02 10:46:18;;;;;;;19.20;8.88;;;;;;;16.71;55.61;102082.47;5094151;28;20020;-51
2023/06/02 10:48:43;;;;;;;22.27;9.07;;;;;;;16.82;54.31;102083.88;5094022;28;20024;-48
2023/06/02 10:51:10;;;;;;;19.73;9.20;;;;;;;16.43;54.16;102085.38;5093885;28;20801;-52
2023/06/02 10:54:07;;;;;;;22.90;9.15;;;;;;;16.80;54.86;102079.75;5093820;28;20028;-51
2023/06/02 10:56:35;;;;;;;21.30;10.13;;;;;;;16.89;53.86;102079.78;5093265;28;20036;-53
2023/06/02 10:59:00;;;;;;;23.23;10.13;;;;;;;16.91;54.00;102080.31;5091681;28;20028;-49
2023/06/02 11:01:45;;;;;;;23.38;10.50;;;;;;;16.62;54.65;102078.78;5093151;28;20081;-50
2023/06/02 11:04:31;;;;;;;23.40;9.98;;;;;;;16.89;55.55;102077.00;5093294;28;20024;-48
2023/06/02 11:07:17;;;;;;;20.80;9.27;;;;;;;17.19;53.73;102092.19;5093270;28;20023;-48
2023/06/02 11:09:44;;;;;;;22.85;10.32;;;;;;;17.09;54.74;102079.28;5092954;28;20048;-49
2023/06/02 11:12:09;;;;;;;20.50;9.45;;;;;;;17.00;54.94;102078.41;5093052;28;20020;-50
2023/06/02 11:15:04;;;;;;;20.48;9.57;;;;;;;17.16;54.70;102084.44;5092910;28;20504;-47
2023/06/02 11:17:34;;;;;;;22.40;9.52;;;;;;;17.14;54.55;102081.13;5092705;28;20051;-51